sensor_id;sensor_type;location;lat;lon;timestamp;P1;durP1;ratioP1;P2;durP2;ratioP2
18174;SDS011;9212;50.894;16.714;2023-08-17T00:01:51;2.90;;;2.65;;
18174;SDS011;9212;50.894;16.714;2023-08-17T00:04:20;5.00;;;2.88;;
18174;SDS011;9212;50.894;16.714;2023-08-17T00:06:47;5.22;;;2.85;;
18174;SDS011;9212;50.894;16.714;2023-08-17T00:09:14;3.55;;;2.30;;
18174;SDS011;9212;50.894;16.714;2023-08-17T00:11:41;4.93;;;2.78;;
18174;SDS011;9212;50.894;16.714;2023-08-17T00:14:09;4.82;;;2.60;;
18174;SDS011;9212;50.894;16.714;2023-08-17T00:16:36;2.70;;;2.08;;
18174;SDS011;9212;50.894;16.714;2023-08-17T00:19:03;3.22;;;2.30;;
18174;SDS011;9212;50.894;16.714;2023-08-17T00:21:32;2.63;;;2.42;;
18174;SDS011;9212;50.894;16.714;2023-08-17T00:23:59;4.40;;;2.50;;
18174;SDS011;9212;50.894;16.714;2023-08-17T00:26:26;3.75;;;2.50;;
18174;SDS011;9212;50.894;16.714;2023-08-17T00:28:54;2.83;;;1.98;;
18174;SDS011;9212;50.894;16.714;2023-08-17T00:31:21;4.68;;;2.20;;
18174;SDS011;9212;50.894;16.714;2023-08-17T00:33:48;2.30;;;2.10;;
18174;SDS011;9212;50.894;16.714;2023-08-17T00:36:15;5.75;;;2.08;;
18174;SDS011;9212;50.894;16.714;2023-08-17T00:38:44;3.10;;;2.08;;
18174;SDS011;9212;50.894;16.714;2023-08-17T00:41:11;5.00;;;2.65;;
18174;SDS011;9212;50.894;16.714;2023-08-17T00:43:38;4.93;;;3.08;;
18174;SDS011;9212;50.894;16.714;2023-08-17T00:46:05;4.93;;;2.67;;
18174;SDS011;9212;50.894;16.714;2023-08-17T00:48:33;4.75;;;2.88;;
18174;SDS011;9212;50.894;16.714;2023-08-17T00:51:00;8.68;;;3.40;;
18174;SDS011;9212;50.894;16.714;2023-08-17T00:53:28;8.40;;;3.40;;
18174;SDS011;9212;50.894;16.714;2023-08-17T00:55:58;8.88;;;3.22;;
18174;SDS011;9212;50.894;16.714;2023-08-17T00:58:26;6.15;;;3.25;;
18174;SDS011;9212;50.894;16.714;2023-08-17T01:00:53;7.32;;;3.90;;
18174;SDS011;9212;50.894;16.714;2023-08-17T01:03:20;4.35;;;3.17;;
18174;SDS011;9212;50.894;16.714;2023-08-17T01:05:48;9.80;;;3.20;;
18174;SDS011;9212;50.894;16.714;2023-08-17T01:08:16;8.95;;;3.30;;
18174;SDS011;9212;50.894;16.714;2023-08-17T01:10:53;10.50;;;3.90;;
18174;SDS011;9212;50.894;16.714;2023-08-17T01:13:25;7.85;;;3.60;;
18174;SDS011;9212;50.894;16.714;2023-08-17T01:15:56;8.50;;;4.10;;
18174;SDS011;9212;50.894;16.714;2023-08-17T01:18:25;10.80;;;4.55;;
18174;SDS011;9212;50.894;16.714;2023-08-17T01:20:53;13.70;;;4.25;;
18174;SDS011;9212;50.894;16.714;2023-08-17T01:23:22;10.60;;;4.90;;
18174;SDS011;9212;50.894;16.714;2023-08-17T01:25:50;7.30;;;4.13;;
18174;SDS011;9212;50.894;16.714;2023-08-17T01:28:18;7.30;;;3.83;;
18174;SDS011;9212;50.894;16.714;2023-08-17T01:30:46;8.25;;;3.97;;
18174;SDS011;9212;50.894;16.714;2023-08-17T01:33:16;6.53;;;4.20;;
18174;SDS011;9212;50.894;16.714;2023-08-17T01:35:46;7.68;;;4.10;;
18174;SDS011;9212;50.894;16.714;2023-08-17T01:38:14;6.28;;;3.95;;
18174;SDS011;9212;50.894;16.714;2023-08-17T01:40:45;10.18;;;4.22;;
18174;SDS011;9212;50.894;16.714;2023-08-17T01:43:12;8.13;;;4.20;;
18174;SDS011;9212;50.894;16.714;2023-08-17T01:45:40;17.67;;;4.78;;
18174;SDS011;9212;50.894;16.714;2023-08-17T01:48:07;6.57;;;3.78;;
18174;SDS011;9212;50.894;16.714;2023-08-17T01:50:35;5.68;;;4.60;;
18174;SDS011;9212;50.894;16.714;2023-08-17T01:53:02;7.55;;;3.83;;
18174;SDS011;9212;50.894;16.714;2023-08-17T01:55:29;8.02;;;4.72;;
18174;SDS011;9212;50.894;16.714;2023-08-17T01:57:58;6.45;;;4.43;;
18174;SDS011;9212;50.894;16.714;2023-08-17T02:00:25;5.60;;;4.30;;
18174;SDS011;9212;50.894;16.714;2023-08-17T02:02:53;8.65;;;4.90;;
18174;SDS011;9212;50.894;16.714;2023-08-17T02:05:20;6.35;;;4.75;;
18174;SDS011;9212;50.894;16.714;2023-08-17T02:07:47;8.50;;;4.68;;
18174;SDS011;9212;50.894;16.714;2023-08-17T02:10:15;12.77;;;4.60;;
18174;SDS011;9212;50.894;16.714;2023-08-17T02:12:42;9.68;;;5.55;;
18174;SDS011;9212;50.894;16.714;2023-08-17T02:15:11;7.82;;;4.65;;
18174;SDS011;9212;50.894;16.714;2023-08-17T02:17:38;7.43;;;4.72;;
18174;SDS011;9212;50.894;16.714;2023-08-17T02:20:06;9.02;;;4.72;;
18174;SDS011;9212;50.894;16.714;2023-08-17T02:22:34;6.97;;;4.82;;
18174;SDS011;9212;50.894;16.714;2023-08-17T02:25:01;5.88;;;4.43;;
18174;SDS011;9212;50.894;16.714;2023-08-17T02:27:28;5.45;;;3.80;;
18174;SDS011;9212;50.894;16.714;2023-08-17T02:29:56;4.45;;;3.80;;
18174;SDS011;9212;50.894;16.714;2023-08-17T02:32:25;8.77;;;4.22;;
18174;SDS011;9212;50.894;16.714;2023-08-17T02:34:52;6.55;;;4.07;;
18174;SDS011;9212;50.894;16.714;2023-08-17T02:37:19;8.55;;;4.28;;
18174;SDS011;9212;50.894;16.714;2023-08-17T02:39:46;7.50;;;4.78;;
18174;SDS011;9212;50.894;16.714;2023-08-17T02:42:14;8.57;;;3.97;;
18174;SDS011;9212;50.894;16.714;2023-08-17T02:44:41;8.35;;;3.75;;
18174;SDS011;9212;50.894;16.714;2023-08-17T02:47:08;4.97;;;4.00;;
18174;SDS011;9212;50.894;16.714;2023-08-17T02:49:36;7.43;;;5.10;;
18174;SDS011;9212;50.894;16.714;2023-08-17T02:52:04;6.95;;;4.05;;
18174;SDS011;9212;50.894;16.714;2023-08-17T02:54:31;6.35;;;3.95;;
18174;SDS011;9212;50.894;16.714;2023-08-17T02:56:59;4.43;;;3.67;;
18174;SDS011;9212;50.894;16.714;2023-08-17T02:59:26;9.35;;;3.80;;
18174;SDS011;9212;50.894;16.714;2023-08-17T03:01:53;5.65;;;3.72;;
18174;SDS011;9212;50.894;16.714;2023-08-17T03:04:21;6.45;;;4.15;;
18174;SDS011;9212;50.894;16.714;2023-08-17T03:06:51;7.25;;;3.67;;
18174;SDS011;9212;50.894;16.714;2023-08-17T03:09:18;5.07;;;3.58;;
18174;SDS011;9212;50.894;16.714;2023-08-17T03:11:45;5.75;;;4.00;;
18174;SDS011;9212;50.894;16.714;2023-08-17T03:14:12;6.28;;;4.03;;
18174;SDS011;9212;50.894;16.714;2023-08-17T03:16:40;6.53;;;4.18;;
18174;SDS011;9212;50.894;16.714;2023-08-17T03:19:07;9.50;;;4.53;;
18174;SDS011;9212;50.894;16.714;2023-08-17T03:21:36;3.78;;;3.45;;
18174;SDS011;9212;50.894;16.714;2023-08-17T03:24:05;4.35;;;3.42;;
18174;SDS011;9212;50.894;16.714;2023-08-17T03:26:32;4.65;;;3.30;;
18174;SDS011;9212;50.894;16.714;2023-08-17T03:29:00;9.73;;;3.88;;
18174;SDS011;9212;50.894;16.714;2023-08-17T03:31:27;4.78;;;3.42;;
18174;SDS011;9212;50.894;16.714;2023-08-17T03:33:54;5.80;;;4.28;;
18174;SDS011;9212;50.894;16.714;2023-08-17T03:36:21;5.72;;;4.13;;
18174;SDS011;9212;50.894;16.714;2023-08-17T03:38:49;5.68;;;4.40;;
18174;SDS011;9212;50.894;16.714;2023-08-17T03:41:18;7.13;;;4.82;;
18174;SDS011;9212;50.894;16.714;2023-08-17T03:43:45;8.23;;;5.00;;
18174;SDS011;9212;50.894;16.714;2023-08-17T03:46:13;4.88;;;4.03;;
18174;SDS011;9212;50.894;16.714;2023-08-17T03:48:40;4.80;;;4.20;;
18174;SDS011;9212;50.894;16.714;2023-08-17T03:51:07;8.27;;;4.55;;
18174;SDS011;9212;50.894;16.714;2023-08-17T03:53:34;7.78;;;5.00;;
18174;SDS011;9212;50.894;16.714;2023-08-17T03:56:02;6.15;;;4.55;;
18174;SDS011;9212;50.894;16.714;2023-08-17T03:58:30;5.68;;;4.40;;
18174;SDS011;9212;50.894;16.714;2023-08-17T04:01:00;8.23;;;4.50;;
18174;SDS011;9212;50.894;16.714;2023-08-17T04:03:28;6.80;;;4.20;;
18174;SDS011;9212;50.894;16.714;2023-08-17T04:05:55;10.32;;;4.28;;
18174;SDS011;9212;50.894;16.714;2023-08-17T04:08:22;8.00;;;4.35;;
18174;SDS011;9212;50.894;16.714;2023-08-17T04:10:50;9.18;;;4.43;;
18174;SDS011;9212;50.894;16.714;2023-08-17T04:13:17;7.05;;;4.20;;
18174;SDS011;9212;50.894;16.714;2023-08-17T04:15:46;4.40;;;3.72;;
18174;SDS011;9212;50.894;16.714;2023-08-17T04:18:13;10.25;;;4.38;;
18174;SDS011;9212;50.894;16.714;2023-08-17T04:20:41;9.57;;;4.22;;
18174;SDS011;9212;50.894;16.714;2023-08-17T04:23:08;8.15;;;4.43;;
18174;SDS011;9212;50.894;16.714;2023-08-17T04:25:35;4.90;;;4.07;;
18174;SDS011;9212;50.894;16.714;2023-08-17T04:28:02;6.22;;;4.03;;
18174;SDS011;9212;50.894;16.714;2023-08-17T04:30:30;4.55;;;3.67;;
18174;SDS011;9212;50.894;16.714;2023-08-17T04:32:58;6.40;;;4.13;;
18174;SDS011;9212;50.894;16.714;2023-08-17T04:35:26;5.63;;;4.38;;
18174;SDS011;9212;50.894;16.714;2023-08-17T04:37:53;6.65;;;3.70;;
18174;SDS011;9212;50.894;16.714;2023-08-17T04:40:20;8.65;;;3.95;;
18174;SDS011;9212;50.894;16.714;2023-08-17T04:42:47;6.93;;;4.18;;
18174;SDS011;9212;50.894;16.714;2023-08-17T04:45:14;7.15;;;4.00;;
18174;SDS011;9212;50.894;16.714;2023-08-17T04:47:42;7.45;;;4.20;;
18174;SDS011;9212;50.894;16.714;2023-08-17T04:50:10;6.55;;;4.07;;
18174;SDS011;9212;50.894;16.714;2023-08-17T04:52:41;6.25;;;4.03;;
18174;SDS011;9212;50.894;16.714;2023-08-17T04:55:08;7.82;;;3.70;;
18174;SDS011;9212;50.894;16.714;2023-08-17T04:57:38;6.00;;;3.80;;
18174;SDS011;9212;50.894;16.714;2023-08-17T05:00:05;7.47;;;4.03;;
18174;SDS011;9212;50.894;16.714;2023-08-17T05:02:34;6.78;;;3.15;;
18174;SDS011;9212;50.894;16.714;2023-08-17T05:05:02;3.67;;;3.30;;
18174;SDS011;9212;50.894;16.714;2023-08-17T05:07:31;4.97;;;3.22;;
18174;SDS011;9212;50.894;16.714;2023-08-17T05:09:58;5.57;;;3.40;;
18174;SDS011;9212;50.894;16.714;2023-08-17T05:12:26;4.35;;;3.30;;
18174;SDS011;9212;50.894;16.714;2023-08-17T05:14:53;3.47;;;3.17;;
18174;SDS011;9212;50.894;16.714;2023-08-17T05:17:20;4.15;;;3.35;;
18174;SDS011;9212;50.894;16.714;2023-08-17T05:19:47;3.97;;;3.00;;
18174;SDS011;9212;50.894;16.714;2023-08-17T05:22:14;4.22;;;3.25;;
18174;SDS011;9212;50.894;16.714;2023-08-17T05:24:43;4.15;;;2.90;;
18174;SDS011;9212;50.894;16.714;2023-08-17T05:27:10;4.53;;;2.85;;
18174;SDS011;9212;50.894;16.714;2023-08-17T05:29:37;4.40;;;3.17;;
18174;SDS011;9212;50.894;16.714;2023-08-17T05:32:05;3.40;;;3.00;;
18174;SDS011;9212;50.894;16.714;2023-08-17T05:34:32;3.83;;;3.17;;
18174;SDS011;9212;50.894;16.714;2023-08-17T05:36:59;3.08;;;2.63;;
18174;SDS011;9212;50.894;16.714;2023-08-17T05:39:28;3.97;;;3.35;;
18174;SDS011;9212;50.894;16.714;2023-08-17T05:41:57;3.40;;;2.97;;
18174;SDS011;9212;50.894;16.714;2023-08-17T05:44:24;4.45;;;2.97;;
18174;SDS011;9212;50.894;16.714;2023-08-17T05:46:51;5.22;;;3.60;;
18174;SDS011;9212;50.894;16.714;2023-08-17T05:49:18;3.75;;;3.35;;
18174;SDS011;9212;50.894;16.714;2023-08-17T05:51:45;6.78;;;3.15;;
18174;SDS011;9212;50.894;16.714;2023-08-17T05:54:12;5.85;;;3.50;;
18174;SDS011;9212;50.894;16.714;2023-08-17T05:56:40;4.75;;;3.67;;
18174;SDS011;9212;50.894;16.714;2023-08-17T05:59:11;4.03;;;3.63;;
18174;SDS011;9212;50.894;16.714;2023-08-17T06:01:39;5.13;;;3.40;;
18174;SDS011;9212;50.894;16.714;2023-08-17T06:04:06;12.25;;;3.95;;
18174;SDS011;9212;50.894;16.714;2023-08-17T06:06:34;4.10;;;3.65;;
18174;SDS011;9212;50.894;16.714;2023-08-17T06:09:01;5.72;;;3.80;;
18174;SDS011;9212;50.894;16.714;2023-08-17T06:11:28;5.70;;;3.78;;
18174;SDS011;9212;50.894;16.714;2023-08-17T06:13:55;5.90;;;3.97;;
18174;SDS011;9212;50.894;16.714;2023-08-17T06:16:24;4.65;;;3.90;;
18174;SDS011;9212;50.894;16.714;2023-08-17T06:18:51;6.85;;;3.88;;
18174;SDS011;9212;50.894;16.714;2023-08-17T06:21:18;4.75;;;4.30;;
18174;SDS011;9212;50.894;16.714;2023-08-17T06:23:45;6.43;;;4.50;;
18174;SDS011;9212;50.894;16.714;2023-08-17T06:26:13;5.30;;;4.13;;
18174;SDS011;9212;50.894;16.714;2023-08-17T06:28:40;4.97;;;4.38;;
18174;SDS011;9212;50.894;16.714;2023-08-17T06:31:07;5.72;;;4.00;;
18174;SDS011;9212;50.894;16.714;2023-08-17T06:33:36;4.65;;;4.07;;
18174;SDS011;9212;50.894;16.714;2023-08-17T06:36:03;7.72;;;4.30;;
18174;SDS011;9212;50.894;16.714;2023-08-17T06:38:30;5.68;;;4.05;;
18174;SDS011;9212;50.894;16.714;2023-08-17T06:40:58;7.60;;;4.50;;
18174;SDS011;9212;50.894;16.714;2023-08-17T06:43:25;8.85;;;4.30;;
18174;SDS011;9212;50.894;16.714;2023-08-17T06:45:52;7.68;;;4.20;;
18174;SDS011;9212;50.894;16.714;2023-08-17T06:48:21;7.30;;;4.88;;
18174;SDS011;9212;50.894;16.714;2023-08-17T06:50:49;6.18;;;4.28;;
18174;SDS011;9212;50.894;16.714;2023-08-17T06:53:17;8.43;;;4.72;;
18174;SDS011;9212;50.894;16.714;2023-08-17T06:55:44;7.32;;;4.57;;
18174;SDS011;9212;50.894;16.714;2023-08-17T06:58:11;7.13;;;4.85;;
18174;SDS011;9212;50.894;16.714;2023-08-17T07:00:38;5.18;;;4.32;;
18174;SDS011;9212;50.894;16.714;2023-08-17T07:03:06;7.40;;;4.50;;
18174;SDS011;9212;50.894;16.714;2023-08-17T07:05:33;6.95;;;4.82;;
18174;SDS011;9212;50.894;16.714;2023-08-17T07:08:02;10.45;;;4.60;;
18174;SDS011;9212;50.894;16.714;2023-08-17T07:10:29;5.68;;;4.30;;
18174;SDS011;9212;50.894;16.714;2023-08-17T07:12:56;4.70;;;4.20;;
18174;SDS011;9212;50.894;16.714;2023-08-17T07:15:27;5.05;;;4.10;;
18174;SDS011;9212;50.894;16.714;2023-08-17T07:17:55;6.95;;;3.63;;
18174;SDS011;9212;50.894;16.714;2023-08-17T07:20:22;5.03;;;3.65;;
18174;SDS011;9212;50.894;16.714;2023-08-17T07:22:49;4.38;;;3.47;;
18174;SDS011;9212;50.894;16.714;2023-08-17T07:25:18;7.57;;;3.72;;
18174;SDS011;9212;50.894;16.714;2023-08-17T07:27:45;5.60;;;3.25;;
18174;SDS011;9212;50.894;16.714;2023-08-17T07:30:12;4.85;;;3.35;;
18174;SDS011;9212;50.894;16.714;2023-08-17T07:32:40;6.45;;;3.47;;
18174;SDS011;9212;50.894;16.714;2023-08-17T07:35:07;9.23;;;3.88;;
18174;SDS011;9212;50.894;16.714;2023-08-17T07:37:35;3.53;;;2.70;;
18174;SDS011;9212;50.894;16.714;2023-08-17T07:40:02;3.83;;;2.85;;
18174;SDS011;9212;50.894;16.714;2023-08-17T07:42:31;4.28;;;2.80;;
18174;SDS011;9212;50.894;16.714;2023-08-17T07:44:58;4.00;;;2.70;;
18174;SDS011;9212;50.894;16.714;2023-08-17T07:47:26;3.58;;;2.78;;
18174;SDS011;9212;50.894;16.714;2023-08-17T07:49:53;5.68;;;3.17;;
18174;SDS011;9212;50.894;16.714;2023-08-17T07:52:22;4.63;;;2.63;;
18174;SDS011;9212;50.894;16.714;2023-08-17T07:54:50;5.53;;;2.80;;
18174;SDS011;9212;50.894;16.714;2023-08-17T07:57:17;3.72;;;3.10;;
18174;SDS011;9212;50.894;16.714;2023-08-17T07:59:46;4.57;;;2.80;;
18174;SDS011;9212;50.894;16.714;2023-08-17T08:02:13;6.78;;;2.92;;
18174;SDS011;9212;50.894;16.714;2023-08-17T08:04:40;8.27;;;3.05;;
18174;SDS011;9212;50.894;16.714;2023-08-17T08:07:07;4.65;;;3.28;;
18174;SDS011;9212;50.894;16.714;2023-08-17T08:09:34;5.95;;;3.08;;
18174;SDS011;9212;50.894;16.714;2023-08-17T08:12:02;4.07;;;3.33;;
18174;SDS011;9212;50.894;16.714;2023-08-17T08:14:29;4.25;;;3.45;;
18174;SDS011;9212;50.894;16.714;2023-08-17T08:16:58;2.90;;;2.70;;
18174;SDS011;9212;50.894;16.714;2023-08-17T08:19:25;3.63;;;3.10;;
18174;SDS011;9212;50.894;16.714;2023-08-17T08:21:52;3.88;;;3.35;;
18174;SDS011;9212;50.894;16.714;2023-08-17T08:24:19;9.07;;;3.60;;
18174;SDS011;9212;50.894;16.714;2023-08-17T08:26:47;3.67;;;3.35;;
18174;SDS011;9212;50.894;16.714;2023-08-17T08:29:16;4.35;;;3.30;;
18174;SDS011;9212;50.894;16.714;2023-08-17T08:31:43;5.40;;;3.53;;
18174;SDS011;9212;50.894;16.714;2023-08-17T08:34:12;4.70;;;3.97;;
18174;SDS011;9212;50.894;16.714;2023-08-17T08:36:39;4.97;;;3.67;;
18174;SDS011;9212;50.894;16.714;2023-08-17T08:39:06;5.88;;;3.55;;
18174;SDS011;9212;50.894;16.714;2023-08-17T08:41:34;6.22;;;3.75;;
18174;SDS011;9212;50.894;16.714;2023-08-17T08:44:02;5.72;;;3.47;;
18174;SDS011;9212;50.894;16.714;2023-08-17T08:46:30;4.15;;;3.53;;
18174;SDS011;9212;50.894;16.714;2023-08-17T08:48:58;4.18;;;3.05;;
18174;SDS011;9212;50.894;16.714;2023-08-17T08:51:27;3.60;;;3.15;;
18174;SDS011;9212;50.894;16.714;2023-08-17T08:53:58;7.80;;;4.07;;
18174;SDS011;9212;50.894;16.714;2023-08-17T08:56:28;3.33;;;3.03;;
18174;SDS011;9212;50.894;16.714;2023-08-17T08:58:58;4.38;;;3.22;;
18174;SDS011;9212;50.894;16.714;2023-08-17T09:01:28;3.50;;;2.88;;
18174;SDS011;9212;50.894;16.714;2023-08-17T09:03:58;4.72;;;3.17;;
18174;SDS011;9212;50.894;16.714;2023-08-17T09:06:27;4.40;;;2.75;;
18174;SDS011;9212;50.894;16.714;2023-08-17T09:08:56;5.65;;;3.10;;
18174;SDS011;9212;50.894;16.714;2023-08-17T09:11:24;3.60;;;3.22;;
18174;SDS011;9212;50.894;16.714;2023-08-17T09:13:52;5.13;;;2.90;;
18174;SDS011;9212;50.894;16.714;2023-08-17T09:16:19;3.10;;;2.55;;
18174;SDS011;9212;50.894;16.714;2023-08-17T09:18:46;4.72;;;3.00;;
18174;SDS011;9212;50.894;16.714;2023-08-17T09:21:20;3.67;;;2.75;;
18174;SDS011;9212;50.894;16.714;2023-08-17T09:23:51;4.03;;;2.83;;
18174;SDS011;9212;50.894;16.714;2023-08-17T09:26:19;7.25;;;2.80;;
18174;SDS011;9212;50.894;16.714;2023-08-17T09:28:48;7.05;;;3.17;;
18174;SDS011;9212;50.894;16.714;2023-08-17T09:31:15;3.90;;;2.92;;
18174;SDS011;9212;50.894;16.714;2023-08-17T09:33:43;3.28;;;2.83;;
18174;SDS011;9212;50.894;16.714;2023-08-17T09:36:10;5.78;;;3.60;;
18174;SDS011;9212;50.894;16.714;2023-08-17T09:38:39;5.82;;;3.00;;
18174;SDS011;9212;50.894;16.714;2023-08-17T09:41:07;3.05;;;2.80;;
18174;SDS011;9212;50.894;16.714;2023-08-17T09:43:35;5.55;;;2.97;;
18174;SDS011;9212;50.894;16.714;2023-08-17T09:46:02;2.90;;;2.60;;
18174;SDS011;9212;50.894;16.714;2023-08-17T09:48:30;2.90;;;2.70;;
18174;SDS011;9212;50.894;16.714;2023-08-17T09:50:57;3.63;;;2.97;;
18174;SDS011;9212;50.894;16.714;2023-08-17T09:53:26;5.18;;;2.47;;
18174;SDS011;9212;50.894;16.714;2023-08-17T09:55:54;3.88;;;2.75;;
18174;SDS011;9212;50.894;16.714;2023-08-17T09:58:24;3.17;;;2.85;;
18174;SDS011;9212;50.894;16.714;2023-08-17T10:00:51;2.95;;;2.70;;
18174;SDS011;9212;50.894;16.714;2023-08-17T10:03:19;3.47;;;2.50;;
18174;SDS011;9212;50.894;16.714;2023-08-17T10:05:47;3.10;;;2.55;;
18174;SDS011;9212;50.894;16.714;2023-08-17T10:08:17;4.65;;;2.78;;
18174;SDS011;9212;50.894;16.714;2023-08-17T10:10:46;3.00;;;2.80;;
18174;SDS011;9212;50.894;16.714;2023-08-17T10:13:16;3.67;;;2.92;;
18174;SDS011;9212;50.894;16.714;2023-08-17T10:15:48;3.40;;;2.75;;
18174;SDS011;9212;50.894;16.714;2023-08-17T10:18:21;3.03;;;2.83;;
18174;SDS011;9212;50.894;16.714;2023-08-17T10:20:50;3.58;;;2.80;;
18174;SDS011;9212;50.894;16.714;2023-08-17T10:23:22;4.35;;;3.20;;
18174;SDS011;9212;50.894;16.714;2023-08-17T10:25:49;5.38;;;2.80;;
18174;SDS011;9212;50.894;16.714;2023-08-17T10:28:17;3.97;;;2.90;;
18174;SDS011;9212;50.894;16.714;2023-08-17T10:30:46;3.38;;;3.05;;
18174;SDS011;9212;50.894;16.714;2023-08-17T10:33:14;3.40;;;3.10;;
18174;SDS011;9212;50.894;16.714;2023-08-17T10:35:42;3.30;;;3.00;;
18174;SDS011;9212;50.894;16.714;2023-08-17T10:38:09;5.82;;;3.22;;
18174;SDS011;9212;50.894;16.714;2023-08-17T10:40:37;3.50;;;3.20;;
18174;SDS011;9212;50.894;16.714;2023-08-17T10:43:06;4.10;;;2.92;;
18174;SDS011;9212;50.894;16.714;2023-08-17T10:45:33;3.20;;;3.00;;
18174;SDS011;9212;50.894;16.714;2023-08-17T10:48:26;4.90;;;3.70;;
18174;SDS011;9212;50.894;16.714;2023-08-17T10:51:03;6.90;;;3.50;;
18174;SDS011;9212;50.894;16.714;2023-08-17T10:53:37;3.65;;;3.30;;
18174;SDS011;9212;50.894;16.714;2023-08-17T10:56:08;6.35;;;3.38;;
18174;SDS011;9212;50.894;16.714;2023-08-17T10:58:37;4.43;;;3.30;;
18174;SDS011;9212;50.894;16.714;2023-08-17T11:01:06;7.72;;;3.63;;
18174;SDS011;9212;50.894;16.714;2023-08-17T11:03:35;6.35;;;3.40;;
18174;SDS011;9212;50.894;16.714;2023-08-17T11:06:15;6.10;;;3.50;;
18174;SDS011;9212;50.894;16.714;2023-08-17T11:08:53;4.93;;;3.45;;
18174;SDS011;9212;50.894;16.714;2023-08-17T11:11:21;4.38;;;3.35;;
18174;SDS011;9212;50.894;16.714;2023-08-17T11:13:48;4.65;;;3.50;;
18174;SDS011;9212;50.894;16.714;2023-08-17T11:16:16;4.03;;;3.28;;
18174;SDS011;9212;50.894;16.714;2023-08-17T11:18:46;3.70;;;3.40;;
18174;SDS011;9212;50.894;16.714;2023-08-17T11:21:14;4.28;;;3.25;;
18174;SDS011;9212;50.894;16.714;2023-08-17T11:23:42;5.65;;;3.08;;
18174;SDS011;9212;50.894;16.714;2023-08-17T11:26:09;6.40;;;3.40;;
18174;SDS011;9212;50.894;16.714;2023-08-17T11:28:37;4.57;;;3.55;;
18174;SDS011;9212;50.894;16.714;2023-08-17T11:31:06;5.18;;;3.38;;
18174;SDS011;9212;50.894;16.714;2023-08-17T11:33:34;3.90;;;3.60;;
18174;SDS011;9212;50.894;16.714;2023-08-17T11:36:04;4.28;;;3.70;;
18174;SDS011;9212;50.894;16.714;2023-08-17T11:38:32;4.18;;;3.35;;
18174;SDS011;9212;50.894;16.714;2023-08-17T11:40:59;5.47;;;3.72;;
18174;SDS011;9212;50.894;16.714;2023-08-17T11:43:28;8.23;;;4.00;;
18174;SDS011;9212;50.894;16.714;2023-08-17T11:45:55;3.92;;;3.03;;
18174;SDS011;9212;50.894;16.714;2023-08-17T11:48:23;3.80;;;3.50;;
18174;SDS011;9212;50.894;16.714;2023-08-17T11:50:51;5.75;;;3.30;;
18174;SDS011;9212;50.894;16.714;2023-08-17T11:53:21;4.13;;;3.55;;
18174;SDS011;9212;50.894;16.714;2023-08-17T11:55:49;5.20;;;3.40;;
18174;SDS011;9212;50.894;16.714;2023-08-17T11:58:16;4.20;;;3.63;;
18174;SDS011;9212;50.894;16.714;2023-08-17T12:00:43;5.22;;;3.67;;
18174;SDS011;9212;50.894;16.714;2023-08-17T12:03:14;5.47;;;3.38;;
18174;SDS011;9212;50.894;16.714;2023-08-17T12:05:42;3.88;;;3.58;;
18174;SDS011;9212;50.894;16.714;2023-08-17T12:08:12;4.78;;;3.38;;
18174;SDS011;9212;50.894;16.714;2023-08-17T12:10:41;3.50;;;3.20;;
18174;SDS011;9212;50.894;16.714;2023-08-17T12:13:11;5.20;;;3.70;;
18174;SDS011;9212;50.894;16.714;2023-08-17T12:15:39;3.45;;;3.22;;
18174;SDS011;9212;50.894;16.714;2023-08-17T12:18:07;4.97;;;4.03;;
18174;SDS011;9212;50.894;16.714;2023-08-17T12:20:34;4.10;;;3.60;;
18174;SDS011;9212;50.894;16.714;2023-08-17T12:23:02;7.28;;;3.70;;
18174;SDS011;9212;50.894;16.714;2023-08-17T12:25:29;6.57;;;3.90;;
18174;SDS011;9212;50.894;16.714;2023-08-17T12:27:59;4.75;;;4.00;;
18174;SDS011;9212;50.894;16.714;2023-08-17T12:30:26;5.25;;;3.65;;
18174;SDS011;9212;50.894;16.714;2023-08-17T12:32:54;5.38;;;4.03;;
18174;SDS011;9212;50.894;16.714;2023-08-17T12:35:21;6.68;;;4.25;;
18174;SDS011;9212;50.894;16.714;2023-08-17T12:37:49;4.72;;;3.80;;
18174;SDS011;9212;50.894;16.714;2023-08-17T12:40:17;5.32;;;4.10;;
18174;SDS011;9212;50.894;16.714;2023-08-17T12:42:44;5.82;;;3.70;;
18174;SDS011;9212;50.894;16.714;2023-08-17T12:45:13;4.25;;;3.85;;
18174;SDS011;9212;50.894;16.714;2023-08-17T12:47:40;4.20;;;3.80;;
18174;SDS011;9212;50.894;16.714;2023-08-17T12:50:08;5.00;;;3.70;;
18174;SDS011;9212;50.894;16.714;2023-08-17T12:52:36;4.43;;;3.97;;
18174;SDS011;9212;50.894;16.714;2023-08-17T12:55:03;6.05;;;4.43;;
18174;SDS011;9212;50.894;16.714;2023-08-17T12:57:30;5.03;;;3.85;;
18174;SDS011;9212;50.894;16.714;2023-08-17T12:59:58;4.65;;;4.25;;
18174;SDS011;9212;50.894;16.714;2023-08-17T13:02:26;4.13;;;3.80;;
18174;SDS011;9212;50.894;16.714;2023-08-17T13:04:54;5.50;;;4.80;;
18174;SDS011;9212;50.894;16.714;2023-08-17T13:07:21;4.60;;;4.13;;
18174;SDS011;9212;50.894;16.714;2023-08-17T13:09:48;6.18;;;4.47;;
18174;SDS011;9212;50.894;16.714;2023-08-17T13:12:15;4.63;;;4.22;;
18174;SDS011;9212;50.894;16.714;2023-08-17T13:14:42;4.75;;;3.97;;
18174;SDS011;9212;50.894;16.714;2023-08-17T13:17:10;5.10;;;4.00;;
18174;SDS011;9212;50.894;16.714;2023-08-17T13:19:40;3.75;;;3.45;;
18174;SDS011;9212;50.894;16.714;2023-08-17T13:22:08;4.90;;;4.40;;
18174;SDS011;9212;50.894;16.714;2023-08-17T13:24:35;6.68;;;3.95;;
18174;SDS011;9212;50.894;16.714;2023-08-17T13:27:03;4.30;;;4.00;;
18174;SDS011;9212;50.894;16.714;2023-08-17T13:29:30;4.70;;;3.75;;
18174;SDS011;9212;50.894;16.714;2023-08-17T13:31:57;7.97;;;4.00;;
18174;SDS011;9212;50.894;16.714;2023-08-17T13:34:24;4.68;;;3.85;;
18174;SDS011;9212;50.894;16.714;2023-08-17T13:36:53;5.03;;;3.72;;
18174;SDS011;9212;50.894;16.714;2023-08-17T13:39:20;3.90;;;3.58;;
18174;SDS011;9212;50.894;16.714;2023-08-17T13:41:48;5.68;;;4.00;;
18174;SDS011;9212;50.894;16.714;2023-08-17T13:44:15;5.03;;;3.95;;
18174;SDS011;9212;50.894;16.714;2023-08-17T13:46:42;4.82;;;3.88;;
18174;SDS011;9212;50.894;16.714;2023-08-17T13:49:09;4.00;;;3.65;;
18174;SDS011;9212;50.894;16.714;2023-08-17T13:51:36;4.72;;;4.25;;
18174;SDS011;9212;50.894;16.714;2023-08-17T13:54:05;6.80;;;4.50;;
18174;SDS011;9212;50.894;16.714;2023-08-17T13:56:32;6.32;;;4.13;;
18174;SDS011;9212;50.894;16.714;2023-08-17T13:59:00;5.32;;;4.07;;
18174;SDS011;9212;50.894;16.714;2023-08-17T14:01:27;4.25;;;3.70;;
18174;SDS011;9212;50.894;16.714;2023-08-17T14:03:54;3.67;;;3.38;;
18174;SDS011;9212;50.894;16.714;2023-08-17T14:06:22;6.82;;;4.38;;
18174;SDS011;9212;50.894;16.714;2023-08-17T14:08:49;7.75;;;3.97;;
18174;SDS011;9212;50.894;16.714;2023-08-17T14:11:17;6.28;;;4.13;;
18174;SDS011;9212;50.894;16.714;2023-08-17T14:13:45;5.40;;;4.05;;
18174;SDS011;9212;50.894;16.714;2023-08-17T14:16:12;4.88;;;3.50;;
18174;SDS011;9212;50.894;16.714;2023-08-17T14:18:39;7.30;;;4.25;;
18174;SDS011;9212;50.894;16.714;2023-08-17T14:21:06;5.30;;;4.07;;
18174;SDS011;9212;50.894;16.714;2023-08-17T14:23:33;4.78;;;4.28;;
18174;SDS011;9212;50.894;16.714;2023-08-17T14:26:01;6.30;;;4.05;;
18174;SDS011;9212;50.894;16.714;2023-08-17T14:28:29;6.72;;;4.93;;
18174;SDS011;9212;50.894;16.714;2023-08-17T14:30:56;7.82;;;5.10;;
18174;SDS011;9212;50.894;16.714;2023-08-17T14:33:24;6.22;;;5.38;;
18174;SDS011;9212;50.894;16.714;2023-08-17T14:35:51;8.07;;;5.60;;
18174;SDS011;9212;50.894;16.714;2023-08-17T14:38:19;8.32;;;5.50;;
18174;SDS011;9212;50.894;16.714;2023-08-17T14:40:47;15.98;;;6.32;;
18174;SDS011;9212;50.894;16.714;2023-08-17T14:43:15;6.28;;;5.35;;
18174;SDS011;9212;50.894;16.714;2023-08-17T14:45:44;5.40;;;4.68;;
18174;SDS011;9212;50.894;16.714;2023-08-17T14:48:11;6.95;;;5.13;;
18174;SDS011;9212;50.894;16.714;2023-08-17T14:50:38;6.93;;;4.68;;
18174;SDS011;9212;50.894;16.714;2023-08-17T14:53:05;4.95;;;4.45;;